Time;durP1;ratioP1;P1;durP2;ratioP2;P2;SDS_P1;SDS_P2;PMS_P1;PMS_P2;Temp;Humidity;BMP_temperature;BMP_pressure;BME280_temperature;BME280_humidity;BME280_pressure;Samples;Min_cycle;Max_cycle;Signal;HPM_P1;HPM_P2
2021/10/07 00:00:43;;;;;;;8.57;2.85;;;;;;;;;;5039898;28;20041;-59
2021/10/07 00:03:09;;;;;;;8.60;3.47;;;;;;;;;;5039031;28;20091;-60
2021/10/07 00:05:34;;;;;;;6.18;3.30;;;;;;;;;;5039984;28;20048;-60
2021/10/07 00:08:00;;;;;;;14.63;3.28;;;;;;;;;;5042382;28;20037;-59
2021/10/07 00:10:26;;;;;;;5.32;3.00;;;;;;;;;;5049590;28;20087;-60
2021/10/07 00:12:51;;;;;;;8.75;3.90;;;;;;;;;;5044496;28;20036;-59
2021/10/07 00:15:17;;;;;;;8.68;2.83;;;;;;;;;;5033849;28;20037;-59
2021/10/07 00:17:42;;;;;;;6.18;2.85;;;;;;;;;;5043554;28;20044;-59
2021/10/07 00:20:10;;;;;;;6.72;3.10;;;;;;;;;;5044233;28;20320;-59
2021/10/07 00:22:38;;;;;;;5.22;2.72;;;;;;;;;;5038318;28;20029;-59
2021/10/07 00:25:04;;;;;;;12.52;4.13;;;;;;;;;;5039823;28;20098;-59
2021/10/07 00:27:29;;;;;;;10.20;2.78;;;;;;;;;;5040364;28;20052;-60
2021/10/07 00:29:59;;;;;;;7.95;2.97;;;;;;;;;;5043211;28;20106;-59
2021/10/07 00:32:32;;;;;;;8.07;3.10;;;;;;;;;;5039666;28;20033;-60
2021/10/07 00:39:03;;;;;;;4.35;2.80;;;;;;;;;;5039762;28;20032;-60
2021/10/07 00:40:15;;;;;;;9.88;2.85;;;;;;;;;;5036787;28;20037;-60
2021/10/07 00:42:40;;;;;;;12.95;3.42;;;;;;;;;;5041711;28;20036;-60
2021/10/07 00:45:07;;;;;;;6.15;2.58;;;;;;;;;;5038415;28;20016;-60
2021/10/07 00:47:33;;;;;;;10.90;3.38;;;;;;;;;;5037103;28;20059;-59
2021/10/07 00:49:59;;;;;;;8.13;2.80;;;;;;;;;;5036364;28;20071;-60
2021/10/07 00:52:25;;;;;;;5.85;2.70;;;;;;;;;;5030267;28;20462;-60
2021/10/07 00:54:53;;;;;;;9.10;3.65;;;;;;;;;;5047627;28;20058;-60
2021/10/07 00:57:20;;;;;;;7.78;2.38;;;;;;;;;;5037891;28;20036;-59
2021/10/07 00:59:47;;;;;;;10.95;3.13;;;;;;;;;;5034863;28;20024;-60
2021/10/07 01:02:12;;;;;;;8.77;2.83;;;;;;;;;;5018650;28;20128;-59
2021/10/07 01:04:39;;;;;;;7.82;2.85;;;;;;;;;;5020141;28;20190;-59
2021/10/07 01:07:05;;;;;;;12.75;3.05;;;;;;;;;;5018386;28;20310;-60
2021/10/07 01:09:32;;;;;;;9.15;3.80;;;;;;;;;;5014417;28;20057;-60
2021/10/07 01:11:58;;;;;;;9.52;3.05;;;;;;;;;;5020020;28;20519;-59
2021/10/07 01:14:45;;;;;;;9.55;3.30;;;;;;;;;;5009291;28;20112;-59
2021/10/07 01:17:16;;;;;;;7.72;2.58;;;;;;;;;;5012058;28;20496;-60
2021/10/07 01:19:46;;;;;;;8.13;2.65;;;;;;;;;;5021791;28;20087;-60
2021/10/07 01:22:12;;;;;;;9.57;3.30;;;;;;;;;;5016485;28;20087;-59
2021/10/07 01:24:38;;;;;;;8.45;2.70;;;;;;;;;;5016439;28;20041;-59
2021/10/07 01:27:04;;;;;;;12.38;2.72;;;;;;;;;;5020430;28;20040;-60
2021/10/07 01:29:30;;;;;;;7.20;2.78;;;;;;;;;;5014300;28;20049;-60
2021/10/07 01:31:56;;;;;;;5.22;1.92;;;;;;;;;;5010174;28;20124;-59
2021/10/07 01:34:23;;;;;;;7.47;2.25;;;;;;;;;;5014118;28;20072;-60
2021/10/07 01:36:50;;;;;;;7.30;2.20;;;;;;;;;;5018998;28;20437;-60
2021/10/07 01:39:16;;;;;;;5.35;2.65;;;;;;;;;;5020380;28;20095;-60
2021/10/07 01:41:41;;;;;;;4.78;2.22;;;;;;;;;;5021103;28;20500;-59
2021/10/07 01:44:07;;;;;;;8.30;2.58;;;;;;;;;;5013305;28;20053;-60
2021/10/07 01:46:32;;;;;;;3.80;1.95;;;;;;;;;;5015625;28;20411;-59
2021/10/07 01:48:57;;;;;;;5.70;2.25;;;;;;;;;;5009469;28;20507;-60
2021/10/07 01:51:23;;;;;;;5.18;2.60;;;;;;;;;;5018528;28;20129;-60
2021/10/07 01:53:49;;;;;;;3.78;1.20;;;;;;;;;;5014974;28;20513;-59
2021/10/07 01:56:14;;;;;;;4.30;1.92;;;;;;;;;;5020842;28;20072;-59
2021/10/07 01:58:39;;;;;;;6.10;1.70;;;;;;;;;;5014076;28;20064;-59
2021/10/07 02:01:05;;;;;;;4.97;1.52;;;;;;;;;;5011546;28;20117;-60
2021/10/07 02:03:31;;;;;;;4.60;1.90;;;;;;;;;;5017673;28;20045;-60
2021/10/07 02:05:56;;;;;;;8.52;1.95;;;;;;;;;;5014559;28;20038;-60
2021/10/07 02:08:22;;;;;;;5.60;1.83;;;;;;;;;;5012039;28;20034;-60
2021/10/07 02:10:47;;;;;;;3.75;1.65;;;;;;;;;;5017289;28;20510;-60
2021/10/07 02:13:13;;;;;;;2.95;1.63;;;;;;;;;;5020549;28;20037;-60
2021/10/07 02:15:38;;;;;;;9.07;2.95;;;;;;;;;;5008952;28;20056;-60
2021/10/07 02:18:03;;;;;;;4.07;0.88;;;;;;;;;;5015043;28;20021;-59
2021/10/07 02:20:29;;;;;;;3.75;0.90;;;;;;;;;;5016560;28;20524;-59
2021/10/07 02:22:54;;;;;;;1.42;0.50;;;;;;;;;;5010514;28;20040;-59
2021/10/07 02:25:20;;;;;;;1.40;0.52;;;;;;;;;;5010533;28;20033;-60
2021/10/07 02:27:45;;;;;;;2.53;0.47;;;;;;;;;;5015057;28;20029;-60
2021/10/07 02:30:14;;;;;;;1.48;0.35;;;;;;;;;;5015558;28;20132;-60
2021/10/07 02:32:40;;;;;;;2.13;0.70;;;;;;;;;;5026595;28;20036;-62
2021/10/07 02:35:06;;;;;;;1.00;0.40;;;;;;;;;;5016046;28;20033;-60
2021/10/07 02:37:33;;;;;;;1.02;0.43;;;;;;;;;;5011579;28;20088;-59
2021/10/07 02:39:58;;;;;;;0.50;0.20;;;;;;;;;;5012494;28;20037;-59
2021/10/07 02:42:24;;;;;;;0.60;0.30;;;;;;;;;;5019800;28;20480;-60
2021/10/07 02:44:49;;;;;;;1.98;0.20;;;;;;;;;;5017717;28;20040;-58
2021/10/07 02:47:14;;;;;;;0.90;0.40;;;;;;;;;;5014976;28;20443;-60
2021/10/07 02:49:40;;;;;;;2.78;0.40;;;;;;;;;;5018954;28;20045;-59
2021/10/07 02:52:06;;;;;;;1.60;0.40;;;;;;;;;;5009555;28;20377;-59
2021/10/07 02:54:31;;;;;;;7.40;0.40;;;;;;;;;;5017001;28;20084;-60
2021/10/07 02:56:57;;;;;;;0.95;0.40;;;;;;;;;;5015958;28;20030;-59
2021/10/07 02:59:22;;;;;;;5.63;0.65;;;;;;;;;;5016571;28;20037;-60
2021/10/07 03:01:47;;;;;;;1.90;0.70;;;;;;;;;;5015996;28;20040;-60
2021/10/07 03:04:15;;;;;;;3.83;0.95;;;;;;;;;;5014547;28;20591;-60
2021/10/07 03:06:41;;;;;;;1.38;0.80;;;;;;;;;;5016321;28;20408;-59
2021/10/07 03:09:06;;;;;;;4.15;1.00;;;;;;;;;;5032089;28;20030;-60
2021/10/07 03:11:32;;;;;;;2.17;0.80;;;;;;;;;;5013332;28;20046;-59
2021/10/07 03:13:57;;;;;;;2.35;0.90;;;;;;;;;;5016356;28;20164;-60
2021/10/07 03:16:23;;;;;;;2.58;0.95;;;;;;;;;;5011177;28;20036;-59
2021/10/07 03:18:48;;;;;;;2.22;0.47;;;;;;;;;;5016606;28;20511;-60
2021/10/07 03:21:14;;;;;;;2.88;0.80;;;;;;;;;;5020876;28;20040;-60
2021/10/07 03:23:39;;;;;;;1.70;0.50;;;;;;;;;;5016743;28;20034;-60
2021/10/07 03:26:05;;;;;;;1.40;0.35;;;;;;;;;;5029307;28;20538;-60
2021/10/07 03:28:30;;;;;;;1.88;0.30;;;;;;;;;;5015884;28;20041;-60
2021/10/07 03:30:56;;;;;;;3.67;0.30;;;;;;;;;;5013245;28;20040;-60
2021/10/07 03:33:21;;;;;;;1.00;0.30;;;;;;;;;;5011486;28;20034;-60
2021/10/07 03:35:46;;;;;;;0.90;0.20;;;;;;;;;;5010900;28;20033;-60
2021/10/07 03:38:12;;;;;;;0.10;0.10;;;;;;;;;;5014802;28;20038;-59
2021/10/07 03:40:38;;;;;;;1.10;0.20;;;;;;;;;;5014757;28;20060;-59
2021/10/07 03:43:03;;;;;;;0.10;0.00;;;;;;;;;;5024000;28;20037;-60
2021/10/07 03:45:29;;;;;;;1.70;0.20;;;;;;;;;;5019470;28;20455;-60
2021/10/07 03:47:55;;;;;;;0.10;0.10;;;;;;;;;;5018278;28;20501;-60
2021/10/07 03:50:20;;;;;;;1.17;0.10;;;;;;;;;;5014438;28;20032;-60
2021/10/07 03:52:46;;;;;;;3.25;0.08;;;;;;;;;;5014561;28;20095;-60
2021/10/07 03:55:12;;;;;;;0.38;0.03;;;;;;;;;;5012274;28;20086;-59
2021/10/07 03:57:37;;;;;;;0.15;0.03;;;;;;;;;;5014703;28;20025;-59
2021/10/07 04:00:05;;;;;;;0.80;0.10;;;;;;;;;;5017968;28;20037;-60
2021/10/07 04:02:31;;;;;;;0.30;0.00;;;;;;;;;;5018094;28;20049;-60
2021/10/07 04:04:56;;;;;;;0.30;0.00;;;;;;;;;;5018263;28;20441;-59
2021/10/07 04:07:22;;;;;;;0.38;0.00;;;;;;;;;;5020012;28;20107;-60
2021/10/07 04:09:47;;;;;;;0.22;0.00;;;;;;;;;;5021879;28;20041;-59
2021/10/07 04:12:13;;;;;;;0.10;0.00;;;;;;;;;;5024134;28;20476;-60
2021/10/07 04:14:38;;;;;;;0.00;0.00;;;;;;;;;;5019633;28;20029;-59
2021/10/07 04:17:03;;;;;;;1.65;0.10;;;;;;;;;;5018823;28;20088;-60
2021/10/07 04:19:29;;;;;;;0.10;0.00;;;;;;;;;;5018328;28;20026;-59
2021/10/07 04:21:55;;;;;;;0.00;0.00;;;;;;;;;;5017794;28;20034;-60
2021/10/07 04:24:20;;;;;;;0.55;0.00;;;;;;;;;;5011900;28;20018;-60
2021/10/07 04:26:46;;;;;;;0.00;0.00;;;;;;;;;;5021029;28;20405;-60
2021/10/07 04:29:11;;;;;;;0.10;0.03;;;;;;;;;;5022324;28;20032;-60
2021/10/07 04:31:38;;;;;;;2.55;0.00;;;;;;;;;;5017703;28;20443;-60
2021/10/07 04:34:05;;;;;;;0.10;0.10;;;;;;;;;;5014069;28;20069;-60
2021/10/07 04:36:31;;;;;;;0.20;0.10;;;;;;;;;;5018408;28;20555;-60
2021/10/07 04:38:56;;;;;;;0.70;0.22;;;;;;;;;;5018528;28;20124;-59
2021/10/07 04:41:21;;;;;;;4.13;0.13;;;;;;;;;;5015331;28;20141;-59
2021/10/07 04:43:47;;;;;;;0.77;0.10;;;;;;;;;;5018042;28;20741;-58
2021/10/07 04:46:12;;;;;;;0.10;0.10;;;;;;;;;;5018330;28;20412;-59
2021/10/07 04:48:38;;;;;;;0.65;0.10;;;;;;;;;;5012624;28;20057;-60
2021/10/07 04:51:03;;;;;;;0.10;0.08;;;;;;;;;;5017384;28;20113;-60
2021/10/07 04:53:29;;;;;;;0.00;0.00;;;;;;;;;;5021063;28;20050;-59
2021/10/07 04:55:55;;;;;;;0.50;0.13;;;;;;;;;;5015125;28;20057;-59
2021/10/07 04:58:23;;;;;;;1.35;0.10;;;;;;;;;;5016805;28;20026;-60
2021/10/07 05:00:49;;;;;;;1.05;0.10;;;;;;;;;;5016530;28;20495;-60
2021/10/07 05:03:15;;;;;;;0.85;0.10;;;;;;;;;;5016533;28;20045;-60
2021/10/07 05:05:42;;;;;;;0.10;0.03;;;;;;;;;;5011300;28;20030;-60
2021/10/07 05:08:08;;;;;;;0.10;0.10;;;;;;;;;;5013797;28;20029;-62
2021/10/07 05:10:33;;;;;;;0.30;0.10;;;;;;;;;;5017822;28;20508;-60
2021/10/07 05:12:58;;;;;;;0.52;0.13;;;;;;;;;;5013444;28;20076;-60
2021/10/07 05:15:25;;;;;;;0.63;0.10;;;;;;;;;;5013263;28;20045;-60
2021/10/07 05:17:51;;;;;;;0.38;0.10;;;;;;;;;;5011231;28;20108;-60
2021/10/07 05:20:17;;;;;;;1.60;0.10;;;;;;;;;;5031886;28;20137;-60
2021/10/07 05:22:42;;;;;;;0.40;0.10;;;;;;;;;;5016265;28;20049;-59
2021/10/07 05:25:08;;;;;;;0.17;0.00;;;;;;;;;;5020776;28;20471;-60
2021/10/07 05:27:34;;;;;;;0.10;0.03;;;;;;;;;;5016116;28;20025;-58
2021/10/07 05:29:59;;;;;;;0.20;0.20;;;;;;;;;;5019615;28;20435;-59
2021/10/07 05:32:25;;;;;;;0.70;0.05;;;;;;;;;;5019447;28;20033;-60
2021/10/07 05:34:50;;;;;;;1.63;0.20;;;;;;;;;;5014300;28;20481;-60
2021/10/07 05:37:16;;;;;;;0.60;0.20;;;;;;;;;;5018143;28;20056;-60
2021/10/07 05:39:41;;;;;;;0.38;0.10;;;;;;;;;;5017861;28;20047;-60
2021/10/07 05:42:07;;;;;;;0.50;0.10;;;;;;;;;;5012662;28;20048;-60
2021/10/07 05:44:32;;;;;;;0.75;0.10;;;;;;;;;;5010837;28;20117;-60
2021/10/07 05:46:58;;;;;;;1.08;0.20;;;;;;;;;;5015014;28;20432;-60
2021/10/07 05:49:25;;;;;;;0.95;0.25;;;;;;;;;;5017677;28;20091;-60
2021/10/07 05:51:51;;;;;;;0.90;0.20;;;;;;;;;;5016709;28;20033;-60
2021/10/07 05:54:19;;;;;;;2.47;0.30;;;;;;;;;;5012571;28;20064;-60
2021/10/07 05:56:45;;;;;;;0.28;0.13;;;;;;;;;;5014037;28;20381;-60
2021/10/07 05:59:10;;;;;;;0.45;0.10;;;;;;;;;;5019023;28;20678;-60
2021/10/07 06:01:36;;;;;;;0.95;0.28;;;;;;;;;;5015517;28;20272;-60
2021/10/07 06:04:01;;;;;;;2.47;0.50;;;;;;;;;;5013454;28;20034;-60
2021/10/07 06:06:27;;;;;;;1.45;0.40;;;;;;;;;;5010102;28;20136;-60
2021/10/07 06:08:53;;;;;;;3.55;0.45;;;;;;;;;;5013121;28;20083;-60
2021/10/07 06:11:19;;;;;;;1.77;0.28;;;;;;;;;;5014223;28;20098;-60
2021/10/07 06:13:44;;;;;;;0.65;0.40;;;;;;;;;;5015294;28;20484;-60
2021/10/07 06:16:10;;;;;;;1.92;0.40;;;;;;;;;;5014284;28;20026;-59
2021/10/07 06:18:36;;;;;;;1.50;0.43;;;;;;;;;;5017347;28;20063;-60
2021/10/07 06:21:02;;;;;;;1.45;0.40;;;;;;;;;;5013877;28;20025;-60
2021/10/07 06:23:27;;;;;;;1.63;0.52;;;;;;;;;;5012219;28;20029;-60
2021/10/07 06:25:53;;;;;;;2.72;0.50;;;;;;;;;;5015628;28;20037;-59
2021/10/07 06:28:18;;;;;;;0.47;0.45;;;;;;;;;;5015789;28;20060;-59
2021/10/07 06:30:44;;;;;;;1.02;0.35;;;;;;;;;;5018051;28;20288;-59
2021/10/07 06:33:09;;;;;;;3.42;0.52;;;;;;;;;;5014011;28;20037;-59
2021/10/07 06:35:35;;;;;;;1.73;0.60;;;;;;;;;;5018552;28;20033;-60
2021/10/07 06:38:00;;;;;;;1.98;0.40;;;;;;;;;;5011335;28;20279;-60
2021/10/07 06:40:26;;;;;;;1.58;0.38;;;;;;;;;;5010843;28;20040;-60
2021/10/07 06:42:52;;;;;;;4.72;0.52;;;;;;;;;;5010870;28;20024;-60
2021/10/07 06:45:17;;;;;;;3.30;0.50;;;;;;;;;;5015041;28;20041;-60
2021/10/07 06:47:43;;;;;;;1.70;0.30;;;;;;;;;;5014502;28;20397;-60
2021/10/07 06:50:10;;;;;;;1.42;0.35;;;;;;;;;;5021100;28;20033;-60
2021/10/07 06:52:37;;;;;;;2.17;0.32;;;;;;;;;;5019211;28;20022;-59
2021/10/07 06:55:03;;;;;;;2.38;0.40;;;;;;;;;;5010862;28;20060;-61
2021/10/07 06:57:29;;;;;;;2.83;0.47;;;;;;;;;;5016493;28;20022;-60
2021/10/07 06:59:54;;;;;;;3.80;1.15;;;;;;;;;;5014784;28;20037;-60
2021/10/07 07:02:20;;;;;;;4.78;0.60;;;;;;;;;;5020695;28;20613;-60
2021/10/07 07:04:45;;;;;;;2.15;0.50;;;;;;;;;;5013934;28;20057;-60
2021/10/07 07:07:11;;;;;;;3.17;0.88;;;;;;;;;;5019263;28;20124;-59
2021/10/07 07:09:36;;;;;;;2.60;0.60;;;;;;;;;;5015629;28;20519;-60
2021/10/07 07:12:02;;;;;;;2.55;0.45;;;;;;;;;;5014278;28;20033;-60
2021/10/07 07:14:27;;;;;;;2.63;0.70;;;;;;;;;;5017065;28;20033;-59
2021/10/07 07:16:53;;;;;;;3.10;0.50;;;;;;;;;;5020490;28;20028;-59
2021/10/07 07:19:18;;;;;;;5.65;0.77;;;;;;;;;;5018734;28;20556;-60
2021/10/07 07:21:44;;;;;;;7.53;0.73;;;;;;;;;;5015447;28;20025;-60
2021/10/07 07:24:09;;;;;;;2.00;0.70;;;;;;;;;;5016178;28;20527;-60
2021/10/07 07:26:36;;;;;;;4.15;0.90;;;;;;;;;;5019152;28;20046;-60
2021/10/07 07:29:03;;;;;;;6.75;0.82;;;;;;;;;;5019511;28;20087;-60
2021/10/07 07:31:29;;;;;;;3.60;0.85;;;;;;;;;;5014656;28;20073;-60
2021/10/07 07:33:55;;;;;;;4.80;0.90;;;;;;;;;;5013750;28;20018;-60
2021/10/07 07:36:23;;;;;;;5.22;0.80;;;;;;;;;;5016820;28;20029;-60
2021/10/07 07:38:49;;;;;;;9.25;0.80;;;;;;;;;;5012502;28;20440;-60
2021/10/07 07:41:15;;;;;;;7.57;0.90;;;;;;;;;;5018661;28;20062;-60
2021/10/07 07:43:41;;;;;;;4.38;1.08;;;;;;;;;;5018300;28;20025;-60
2021/10/07 07:46:07;;;;;;;5.07;1.02;;;;;;;;;;5011872;28;20034;-60
2021/10/07 07:48:33;;;;;;;4.22;0.90;;;;;;;;;;5018244;28;20083;-60
2021/10/07 07:50:59;;;;;;;6.68;1.35;;;;;;;;;;5015256;28;20029;-60
2021/10/07 07:53:24;;;;;;;2.33;0.90;;;;;;;;;;5019399;28;20037;-60
2021/10/07 07:55:50;;;;;;;6.50;1.02;;;;;;;;;;5021858;28;20045;-60
2021/10/07 07:58:17;;;;;;;6.22;0.90;;;;;;;;;;5020753;28;20577;-60
2021/10/07 08:00:42;;;;;;;9.95;1.50;;;;;;;;;;5015463;28;20030;-60
2021/10/07 08:03:08;;;;;;;7.72;0.95;;;;;;;;;;5018820;28;20086;-60
2021/10/07 08:05:34;;;;;;;5.28;0.65;;;;;;;;;;5017808;28;20102;-60
2021/10/07 08:07:59;;;;;;;2.42;0.50;;;;;;;;;;5016466;28;20299;-60
2021/10/07 08:10:25;;;;;;;2.55;0.55;;;;;;;;;;5027500;28;20037;-60
2021/10/07 08:12:51;;;;;;;5.20;1.13;;;;;;;;;;5022489;28;20500;-60
2021/10/07 08:15:17;;;;;;;3.58;1.50;;;;;;;;;;5021292;28;20030;-60
2021/10/07 08:17:43;;;;;;;5.78;1.00;;;;;;;;;;5025919;28;20056;-60
2021/10/07 08:20:11;;;;;;;4.45;0.60;;;;;;;;;;5016687;28;20067;-60
2021/10/07 08:22:36;;;;;;;3.70;0.40;;;;;;;;;;5016635;28;20109;-59
2021/10/07 08:25:03;;;;;;;3.88;0.70;;;;;;;;;;5011357;28;20129;-60
2021/10/07 08:27:28;;;;;;;2.55;0.40;;;;;;;;;;5019553;28;20452;-60
2021/10/07 08:29:55;;;;;;;5.68;0.90;;;;;;;;;;5016593;28;20107;-60
2021/10/07 08:32:21;;;;;;;3.22;0.63;;;;;;;;;;5016087;28;20055;-60
2021/10/07 08:34:46;;;;;;;5.13;0.70;;;;;;;;;;5012033;28;20034;-60
2021/10/07 08:37:12;;;;;;;2.85;0.63;;;;;;;;;;5015837;28;20046;-60
2021/10/07 08:39:37;;;;;;;7.10;0.60;;;;;;;;;;5026798;28;20033;-60
2021/10/07 08:42:04;;;;;;;2.80;0.30;;;;;;;;;;5022224;28;20065;-60
2021/10/07 08:44:30;;;;;;;2.20;0.43;;;;;;;;;;5023702;28;20030;-60
2021/10/07 08:46:56;;;;;;;7.50;0.93;;;;;;;;;;5020062;28;20064;-60
2021/10/07 08:49:24;;;;;;;3.63;0.30;;;;;;;;;;5011892;28;20508;-60
2021/10/07 08:51:51;;;;;;;2.28;0.20;;;;;;;;;;5027105;28;20082;-60
2021/10/07 08:54:17;;;;;;;1.13;0.32;;;;;;;;;;5016802;28;20053;-60
2021/10/07 08:56:43;;;;;;;1.90;0.20;;;;;;;;;;5015783;28;20042;-60
2021/10/07 08:59:09;;;;;;;1.30;0.20;;;;;;;;;;5022001;28;20033;-60
2021/10/07 09:01:45;;;;;;;2.13;0.30;;;;;;;;;;5026211;28;20029;-60
2021/10/07 09:04:23;;;;;;;2.65;0.30;;;;;;;;;;5013967;28;20117;-60
2021/10/07 09:06:52;;;;;;;0.80;0.47;;;;;;;;;;5018056;28;20385;-60
2021/10/07 09:09:18;;;;;;;4.35;0.40;;;;;;;;;;5016135;28;20025;-60
2021/10/07 09:11:50;;;;;;;6.30;0.40;;;;;;;;;;5021096;28;20029;-60
2021/10/07 09:14:18;;;;;;;1.15;0.38;;;;;;;;;;5015222;28;20033;-60
2021/10/07 09:16:48;;;;;;;2.30;0.20;;;;;;;;;;5022586;28;20052;-60
2021/10/07 09:19:13;;;;;;;0.98;0.20;;;;;;;;;;5014422;28;20264;-60
2021/10/07 09:21:39;;;;;;;2.83;0.30;;;;;;;;;;5013827;28;20017;-60
2021/10/07 09:24:28;;;;;;;1.35;0.30;;;;;;;;;;5020358;28;20033;-60
2021/10/07 09:27:10;;;;;;;1.75;0.32;;;;;;;;;;5014649;28;20033;-60
2021/10/07 09:29:52;;;;;;;3.80;0.30;;;;;;;;;;5019257;28;20017;-60
2021/10/07 09:32:29;;;;;;;1.17;0.20;;;;;;;;;;5014193;28;20038;-60
2021/10/07 09:35:00;;;;;;;1.67;0.20;;;;;;;;;;5013079;28;20029;-60
2021/10/07 09:37:39;;;;;;;1.23;0.40;;;;;;;;;;5020247;28;20033;-60
2021/10/07 09:40:25;;;;;;;1.83;0.32;;;;;;;;;;5017962;28;20633;-59
2021/10/07 09:43:02;;;;;;;1.08;0.20;;;;;;;;;;5015525;28;20455;-60
2021/10/07 09:45:30;;;;;;;0.20;0.10;;;;;;;;;;5013093;28;20033;-60
2021/10/07 09:47:59;;;;;;;0.60;0.20;;;;;;;;;;5014244;28;20037;-60
2021/10/07 09:50:41;;;;;;;1.83;0.30;;;;;;;;;;5017767;28;20017;-60
2021/10/07 09:53:07;;;;;;;;;;;;;;;;;;5017755;28;20464;-60
2021/10/07 09:55:35;;;;;;;0.30;0.20;;;;;;;;;;5013894;28;19968;-60
2021/10/07 09:58:11;;;;;;;4.15;0.50;;;;;;;;;;5010762;28;20037;-60
2021/10/07 10:00:38;;;;;;;1.50;0.30;;;;;;;;;;5018376;28;20021;-60
2021/10/07 10:03:06;;;;;;;1.60;0.22;;;;;;;;;;5021181;28;20365;-60
2021/10/07 10:05:37;;;;;;;2.95;0.35;;;;;;;;;;5012591;28;20030;-60
2021/10/07 10:08:04;;;;;;;0.88;0.30;;;;;;;;;;5014436;28;20588;-60
2021/10/07 10:10:30;;;;;;;2.05;0.30;;;;;;;;;;5027880;28;20048;-60
2021/10/07 10:12:56;;;;;;;1.10;0.20;;;;;;;;;;5012731;28;20029;-59
2021/10/07 10:15:22;;;;;;;1.02;0.30;;;;;;;;;;5018009;28;20022;-60
2021/10/07 10:17:48;;;;;;;0.63;0.17;;;;;;;;;;5016828;28;20076;-60
2021/10/07 10:20:26;;;;;;;1.92;0.30;;;;;;;;;;5016303;28;20033;-60
2021/10/07 10:23:15;;;;;;;1.55;0.28;;;;;;;;;;5012086;28;20029;-59
2021/10/07 10:26:00;;;;;;;4.68;0.50;;;;;;;;;;5016580;28;20033;-60
2021/10/07 10:28:29;;;;;;;1.33;0.30;;;;;;;;;;5015697;28;20029;-60
2021/10/07 10:31:05;;;;;;;1.30;0.40;;;;;;;;;;5017773;28;20481;-60
2021/10/07 10:33:33;;;;;;;3.53;0.35;;;;;;;;;;5011668;28;20033;-59
2021/10/07 10:35:59;;;;;;;1.08;0.20;;;;;;;;;;5020181;28;20033;-60
2021/10/07 10:38:29;;;;;;;3.72;0.43;;;;;;;;;;5015686;28;20450;-60
2021/10/07 10:41:09;;;;;;;2.15;0.32;;;;;;;;;;5012563;28;20069;-60
2021/10/07 10:43:36;;;;;;;3.42;0.73;;;;;;;;;;5017972;28;20390;-60
2021/10/07 10:46:01;;;;;;;1.60;0.38;;;;;;;;;;5014845;28;20100;-60
2021/10/07 10:48:42;;;;;;;1.88;0.32;;;;;;;;;;5018088;28;20029;-60
2021/10/07 10:51:15;;;;;;;3.60;0.30;;;;;;;;;;5021615;28;20033;-60
2021/10/07 10:53:59;;;;;;;2.50;0.38;;;;;;;;;;5016492;28;20072;-60
2021/10/07 10:56:32;;;;;;;0.95;0.38;;;;;;;;;;5017960;28;20034;-60
2021/10/07 10:59:20;;;;;;;1.98;0.47;;;;;;;;;;5013464;28;20042;-60
2021/10/07 11:02:14;;;;;;;0.80;0.20;;;;;;;;;;5016780;28;20032;-60
2021/10/07 11:04:48;;;;;;;1.95;0.10;;;;;;;;;;5018409;28;20035;-60
2021/10/07 11:07:36;;;;;;;0.63;0.20;;;;;;;;;;5019065;28;20040;-60
2021/10/07 11:10:16;;;;;;;1.00;0.10;;;;;;;;;;5017082;28;20442;-60
2021/10/07 11:12:50;;;;;;;2.10;0.13;;;;;;;;;;5017876;28;20363;-60
2021/10/07 11:15:17;;;;;;;1.30;0.10;;;;;;;;;;5018434;28;20030;-60
2021/10/07 11:17:44;;;;;;;1.23;0.20;;;;;;;;;;5020919;28;20562;-60
2021/10/07 11:20:17;;;;;;;1.30;0.10;;;;;;;;;;5019076;28;20289;-60
2021/10/07 11:23:11;;;;;;;1.50;0.15;;;;;;;;;;5012244;28;20428;-60
2021/10/07 11:25:40;;;;;;;2.50;0.30;;;;;;;;;;5016823;28;20420;-60
2021/10/07 11:28:06;;;;;;;1.30;0.30;;;;;;;;;;5016509;28;20036;-60
2021/10/07 11:30:34;;;;;;;1.10;0.20;;;;;;;;;;5020595;28;20400;-60
2021/10/07 11:33:01;;;;;;;1.63;0.10;;;;;;;;;;5016249;28;20030;-60
2021/10/07 11:35:28;;;;;;;0.93;0.20;;;;;;;;;;5020061;28;20037;-60
2021/10/07 11:37:58;;;;;;;1.55;0.20;;;;;;;;;;5019871;28;20030;-60
2021/10/07 11:40:26;;;;;;;3.50;0.10;;;;;;;;;;5025393;28;20025;-60
2021/10/07 11:42:55;;;;;;;1.13;0.20;;;;;;;;;;5021334;28;20489;-60
2021/10/07 11:45:26;;;;;;;1.42;0.13;;;;;;;;;;5028388;28;20079;-60
2021/10/07 11:47:52;;;;;;;1.77;0.15;;;;;;;;;;5023453;28;20053;-59
2021/10/07 11:50:21;;;;;;;2.65;0.40;;;;;;;;;;5019644;28;20052;-60
2021/10/07 11:52:48;;;;;;;1.02;0.20;;;;;;;;;;5014488;28;20088;-59
2021/10/07 11:55:16;;;;;;;5.10;0.47;;;;;;;;;;5023692;28;20049;-60
2021/10/07 11:57:57;;;;;;;2.88;0.40;;;;;;;;;;5020798;28;20026;-59
2021/10/07 12:00:46;;;;;;;4.30;0.40;;;;;;;;;;5018690;28;20030;-60
2021/10/07 12:03:16;;;;;;;8.60;0.65;;;;;;;;;;5013531;28;20040;-60
2021/10/07 12:05:43;;;;;;;4.03;0.93;;;;;;;;;;5016382;28;20030;-60
2021/10/07 12:08:12;;;;;;;3.15;0.47;;;;;;;;;;5018592;28;20133;-59
2021/10/07 12:10:44;;;;;;;2.45;0.60;;;;;;;;;;5018926;28;20029;-60
2021/10/07 12:13:27;;;;;;;5.60;0.77;;;;;;;;;;5016591;28;20029;-60
2021/10/07 12:15:56;;;;;;;4.57;0.40;;;;;;;;;;5011298;28;20029;-60
2021/10/07 12:18:24;;;;;;;4.70;0.60;;;;;;;;;;5015673;28;20030;-59
2021/10/07 12:20:59;;;;;;;5.57;1.13;;;;;;;;;;5011498;28;20038;-60
2021/10/07 12:23:25;;;;;;;5.00;0.63;;;;;;;;;;5012101;28;20026;-60
2021/10/07 12:25:57;;;;;;;2.92;0.40;;;;;;;;;;5017013;28;20689;-60
2021/10/07 12:28:23;;;;;;;5.70;0.80;;;;;;;;;;5022646;28;20025;-59
2021/10/07 12:31:09;;;;;;;4.72;0.50;;;;;;;;;;5020111;28;20034;-60
2021/10/07 12:33:35;;;;;;;7.35;0.50;;;;;;;;;;5020455;28;20190;-60
2021/10/07 12:36:10;;;;;;;4.43;0.65;;;;;;;;;;5017501;28;20029;-60
2021/10/07 12:38:54;;;;;;;2.47;0.20;;;;;;;;;;5015577;28;20026;-60
2021/10/07 12:41:40;;;;;;;3.42;0.50;;;;;;;;;;5017106;28;20028;-60
2021/10/07 12:44:08;;;;;;;2.75;0.70;;;;;;;;;;5018357;28;20485;-60
2021/10/07 12:46:51;;;;;;;3.65;0.43;;;;;;;;;;5021970;28;20164;-59
2021/10/07 12:49:30;;;;;;;4.53;0.32;;;;;;;;;;5020724;28;20408;-60
2021/10/07 12:51:55;;;;;;;4.22;0.35;;;;;;;;;;5016564;28;20060;-60
2021/10/07 12:54:28;;;;;;;2.22;0.30;;;;;;;;;;5021177;28;20061;-60
2021/10/07 12:56:54;;;;;;;1.73;0.40;;;;;;;;;;5020984;28;20100;-60
2021/10/07 12:59:19;;;;;;;2.90;0.40;;;;;;;;;;5021249;28;20209;-60
2021/10/07 13:01:45;;;;;;;4.05;0.40;;;;;;;;;;5012465;28;20034;-60
2021/10/07 13:04:24;;;;;;;2.33;0.30;;;;;;;;;;5018492;28;20041;-60
2021/10/07 13:06:54;;;;;;;2.42;0.32;;;;;;;;;;5013875;28;20026;-60
2021/10/07 13:09:20;;;;;;;2.70;0.57;;;;;;;;;;5015401;28;20026;-60
2021/10/07 13:11:45;;;;;;;3.85;0.30;;;;;;;;;;5022069;28;20041;-60
2021/10/07 13:14:16;;;;;;;2.85;0.60;;;;;;;;;;5015961;28;20029;-60
2021/10/07 13:16:41;;;;;;;3.78;0.38;;;;;;;;;;5020581;28;20030;-60
2021/10/07 13:19:07;;;;;;;3.15;0.60;;;;;;;;;;5017042;28;20167;-60
2021/10/07 13:21:32;;;;;;;4.60;0.60;;;;;;;;;;5015910;28;20415;-60
2021/10/07 13:24:01;;;;;;;3.75;0.35;;;;;;;;;;5025995;28;20037;-60
2021/10/07 13:26:47;;;;;;;3.97;0.63;;;;;;;;;;5019524;28;20033;-60
2021/10/07 13:29:13;;;;;;;3.28;0.52;;;;;;;;;;5018590;28;20116;-61
2021/10/07 13:31:38;;;;;;;1.80;0.43;;;;;;;;;;5020805;28;20196;-61
2021/10/07 13:34:04;;;;;;;3.40;0.52;;;;;;;;;;5017795;28;20144;-60
2021/10/07 13:36:30;;;;;;;3.95;0.68;;;;;;;;;;5015292;28;20030;-60
2021/10/07 13:38:56;;;;;;;4.93;1.20;;;;;;;;;;5015337;28;20087;-60
2021/10/07 13:41:22;;;;;;;2.58;0.60;;;;;;;;;;5011989;28;20121;-60
2021/10/07 13:43:47;;;;;;;1.67;0.35;;;;;;;;;;5019619;28;20034;-60
2021/10/07 13:46:14;;;;;;;2.58;0.43;;;;;;;;;;5011576;28;20034;-60
2021/10/07 13:48:40;;;;;;;2.65;0.40;;;;;;;;;;5017898;28;20060;-60
2021/10/07 13:51:05;;;;;;;4.63;0.40;;;;;;;;;;5015179;28;20516;-59
2021/10/07 13:53:31;;;;;;;5.55;0.50;;;;;;;;;;5020568;28;20377;-60
2021/10/07 13:55:57;;;;;;;1.52;0.55;;;;;;;;;;5012110;28;20042;-60
2021/10/07 13:58:23;;;;;;;7.03;0.40;;;;;;;;;;5015297;28;20713;-60
2021/10/07 14:00:50;;;;;;;1.77;0.40;;;;;;;;;;5013959;28;20049;-60
2021/10/07 14:03:15;;;;;;;1.88;0.40;;;;;;;;;;5018798;28;20046;-60
2021/10/07 14:05:44;;;;;;;2.05;0.47;;;;;;;;;;5012427;28;20508;-60
2021/10/07 14:08:11;;;;;;;2.35;0.40;;;;;;;;;;5014268;28;20440;-60
2021/10/07 14:10:38;;;;;;;2.63;0.50;;;;;;;;;;5026210;28;20392;-60
2021/10/07 14:13:04;;;;;;;7.00;0.63;;;;;;;;;;5009942;28;20444;-59
2021/10/07 14:15:30;;;;;;;4.10;0.40;;;;;;;;;;5017650;28;20508;-61
2021/10/07 14:17:57;;;;;;;2.70;0.50;;;;;;;;;;5017343;28;20111;-60
2021/10/07 14:20:24;;;;;;;4.45;0.63;;;;;;;;;;5019448;28;20048;-60
2021/10/07 14:22:50;;;;;;;7.10;0.93;;;;;;;;;;5010479;28;20026;-60
2021/10/07 14:25:17;;;;;;;1.92;0.30;;;;;;;;;;5018813;28;20032;-60
2021/10/07 14:27:43;;;;;;;3.38;0.60;;;;;;;;;;5012807;28;20041;-60
2021/10/07 14:30:09;;;;;;;1.85;0.65;;;;;;;;;;5018131;28;20052;-60
2021/10/07 14:32:34;;;;;;;4.05;0.68;;;;;;;;;;5018688;28;20566;-60
2021/10/07 14:35:00;;;;;;;2.25;0.50;;;;;;;;;;5018651;28;20057;-60
2021/10/07 14:37:26;;;;;;;2.47;0.40;;;;;;;;;;5013600;28;20034;-60
2021/10/07 14:39:52;;;;;;;2.60;0.30;;;;;;;;;;5015611;28;20109;-60
2021/10/07 14:42:18;;;;;;;1.05;0.40;;;;;;;;;;5012515;28;20026;-60
2021/10/07 14:44:44;;;;;;;1.83;0.22;;;;;;;;;;5012258;28;20287;-60
2021/10/07 14:47:09;;;;;;;1.45;0.40;;;;;;;;;;5009380;28;20291;-60
2021/10/07 14:49:36;;;;;;;2.30;1.10;;;;;;;;;;5013003;28;20065;-60